createdAt,value
2019-03-30T00:01:17.879Z,9.63
2019-03-30T00:03:44.305Z,8.43
2019-03-30T00:06:10.886Z,7.90
2019-03-30T00:08:37.240Z,8.77
2019-03-30T00:11:03.807Z,9.27
2019-03-30T00:13:30.372Z,8.60
2019-03-30T00:15:57.118Z,8.77
2019-03-30T00:18:23.471Z,8.37
2019-03-30T00:20:49.849Z,8.27
2019-03-30T00:23:16.245Z,8.80
2019-03-30T00:25:42.592Z,8.87
2019-03-30T00:28:09.008Z,9.27
2019-03-30T00:30:35.384Z,8.97
2019-03-30T00:33:01.953Z,9.47
2019-03-30T00:35:28.308Z,8.40
2019-03-30T00:37:54.678Z,8.37
2019-03-30T00:40:21.047Z,8.50
2019-03-30T00:42:47.711Z,9.27
2019-03-30T00:45:14.158Z,8.97
2019-03-30T00:47:40.569Z,8.57
2019-03-30T00:50:09.857Z,7.97
2019-03-30T00:52:36.223Z,8.93
2019-03-30T00:55:03.968Z,8.63
2019-03-30T00:57:30.377Z,9.23
2019-03-30T00:59:56.836Z,9.57
2019-03-30T01:02:23.328Z,9.23
2019-03-30T01:04:49.789Z,10.00
2019-03-30T01:07:16.280Z,9.57
2019-03-30T01:09:42.832Z,10.37
2019-03-30T01:12:10.698Z,9.30
2019-03-30T01:14:37.047Z,8.63
2019-03-30T01:17:04.163Z,9.43
2019-03-30T01:19:30.535Z,9.77
2019-03-30T01:21:56.984Z,9.40
2019-03-30T01:24:23.414Z,9.03
2019-03-30T01:26:49.786Z,9.73
2019-03-30T01:29:16.254Z,9.30
2019-03-30T01:31:42.723Z,9.33
2019-03-30T01:34:09.294Z,8.90
2019-03-30T01:36:35.665Z,9.17
2019-03-30T01:39:03.828Z,8.70
2019-03-30T01:41:30.280Z,8.83
2019-03-30T01:43:56.762Z,8.47
2019-03-30T01:46:23.114Z,8.77
2019-03-30T01:48:49.614Z,8.70
2019-03-30T01:51:16.181Z,9.70
2019-03-30T01:53:42.746Z,8.97
2019-03-30T01:56:09.099Z,9.03
2019-03-30T01:58:35.599Z,9.93
2019-03-30T02:01:02.120Z,9.63
2019-03-30T02:03:28.469Z,9.03
2019-03-30T02:05:54.827Z,9.30
2019-03-30T02:08:21.195Z,10.37
2019-03-30T02:10:47.645Z,9.57
2019-03-30T02:13:14.205Z,9.37
2019-03-30T02:15:40.679Z,9.70
2019-03-30T02:18:07.236Z,9.57
2019-03-30T02:20:35.530Z,9.83
2019-03-30T02:23:01.995Z,10.03
2019-03-30T02:25:28.399Z,9.50
2019-03-30T02:27:54.877Z,9.63
2019-03-30T02:30:21.363Z,9.30
2019-03-30T02:32:47.808Z,8.87
2019-03-30T02:35:14.287Z,9.90
2019-03-30T02:37:40.676Z,10.07
2019-03-30T02:40:07.390Z,9.17
2019-03-30T02:42:33.914Z,9.83
2019-03-30T02:45:00.562Z,8.80
2019-03-30T02:47:27.120Z,9.27
2019-03-30T02:49:53.685Z,10.03
2019-03-30T02:52:20.135Z,9.40
2019-03-30T02:54:46.532Z,9.77
2019-03-30T02:57:12.889Z,9.50
2019-03-30T02:59:39.367Z,9.57
2019-03-30T03:02:05.713Z,9.93
2019-03-30T03:04:32.070Z,9.17
2019-03-30T03:06:58.443Z,9.10
2019-03-30T03:09:24.926Z,8.53
2019-03-30T03:11:51.371Z,9.80
2019-03-30T03:14:17.856Z,8.73
2019-03-30T03:16:44.293Z,9.37
2019-03-30T03:19:10.671Z,9.73
2019-03-30T03:21:37.338Z,9.97
2019-03-30T03:24:03.817Z,9.53
2019-03-30T03:26:30.285Z,9.70
2019-03-30T03:28:56.741Z,9.80
2019-03-30T03:31:23.215Z,9.60
2019-03-30T03:33:49.808Z,10.20
2019-03-30T03:36:16.244Z,10.07
2019-03-30T03:38:42.801Z,9.13
2019-03-30T03:41:09.268Z,9.20
2019-03-30T03:43:35.727Z,9.23
2019-03-30T03:46:02.194Z,9.53
2019-03-30T03:48:28.540Z,9.53
2019-03-30T03:50:56.924Z,9.70
2019-03-30T03:53:23.519Z,9.80
2019-03-30T03:55:49.988Z,10.23
2019-03-30T03:58:16.635Z,10.73
2019-03-30T04:00:43.811Z,9.63
2019-03-30T04:03:10.260Z,10.27
2019-03-30T04:05:37.735Z,10.20
2019-03-30T04:08:04.405Z,10.23
2019-03-30T04:10:31.847Z,10.07
2019-03-30T04:13:00.202Z,8.63
2019-03-30T04:15:26.776Z,8.90
2019-03-30T04:17:53.133Z,9.37
2019-03-30T04:20:21.544Z,10.13
2019-03-30T04:22:47.905Z,9.70
2019-03-30T04:25:15.411Z,9.60
2019-03-30T04:27:42.189Z,9.43
2019-03-30T04:30:08.643Z,9.80
2019-03-30T04:32:36.677Z,9.87
2019-03-30T04:35:04.261Z,10.20
2019-03-30T04:37:30.827Z,9.20
2019-03-30T04:39:57.181Z,8.83
2019-03-30T04:42:23.681Z,10.00
2019-03-30T04:44:50.219Z,9.13
2019-03-30T04:47:16.696Z,10.17
2019-03-30T04:49:43.141Z,10.33
2019-03-30T04:52:09.610Z,10.17
2019-03-30T04:54:35.980Z,9.50
2019-03-30T04:57:02.443Z,10.00
2019-03-30T04:59:28.913Z,10.73
2019-03-30T05:01:55.480Z,10.43
2019-03-30T05:04:21.874Z,9.80
2019-03-30T05:06:48.424Z,9.40
2019-03-30T05:09:14.867Z,10.53
2019-03-30T05:11:41.441Z,9.97
2019-03-30T05:14:07.888Z,10.53
2019-03-30T05:16:34.275Z,10.30
2019-03-30T05:19:00.727Z,10.70
2019-03-30T05:21:27.088Z,10.67
2019-03-30T05:23:53.596Z,10.40
2019-03-30T05:26:20.040Z,9.87
2019-03-30T05:28:46.529Z,10.10
2019-03-30T05:31:12.871Z,9.13
2019-03-30T05:33:39.351Z,9.73
2019-03-30T05:36:05.705Z,9.10
2019-03-30T05:38:32.172Z,9.93
2019-03-30T05:40:58.623Z,9.50
2019-03-30T05:43:25.096Z,9.17
2019-03-30T05:45:51.661Z,8.37
2019-03-30T05:48:18.141Z,9.10
2019-03-30T05:50:44.597Z,8.57
2019-03-30T05:53:10.972Z,8.70
2019-03-30T05:55:37.531Z,9.57
2019-03-30T05:58:04.012Z,9.53
2019-03-30T06:00:30.571Z,9.30
2019-03-30T06:02:56.928Z,9.23
2019-03-30T06:05:23.389Z,10.10
2019-03-30T06:07:49.758Z,8.53
2019-03-30T06:10:16.207Z,10.17
2019-03-30T06:12:42.688Z,10.13
2019-03-30T06:15:09.142Z,10.40
2019-03-30T06:17:36.426Z,9.70
2019-03-30T06:20:04.212Z,8.23
2019-03-30T06:22:40.119Z,9.97
2019-03-30T06:24:59.031Z,9.93
2019-03-30T06:27:25.383Z,9.80
2019-03-30T06:29:53.740Z,9.97
2019-03-30T06:32:20.224Z,10.20
2019-03-30T06:34:46.685Z,9.93
2019-03-30T06:37:13.159Z,10.73
2019-03-30T06:39:39.521Z,9.40
2019-03-30T06:42:05.992Z,11.13
2019-03-30T06:44:32.367Z,10.27
2019-03-30T06:46:58.903Z,9.67
2019-03-30T06:49:25.442Z,9.27
2019-03-30T06:51:51.990Z,9.17
2019-03-30T06:54:18.574Z,9.93
2019-03-30T06:56:44.929Z,9.50
2019-03-30T06:59:11.507Z,9.03
2019-03-30T07:01:37.947Z,9.17
2019-03-30T07:04:04.428Z,9.73
2019-03-30T07:06:30.882Z,9.90
2019-03-30T07:08:57.963Z,9.17
2019-03-30T07:11:26.326Z,9.17
2019-03-30T07:13:54.598Z,9.67
2019-03-30T07:16:21.158Z,9.63
2019-03-30T07:18:49.540Z,10.40
2019-03-30T07:21:15.912Z,11.47
2019-03-30T07:23:42.509Z,13.33
2019-03-30T07:26:09.073Z,12.77
2019-03-30T07:28:35.456Z,11.90
2019-03-30T07:31:01.798Z,11.77
2019-03-30T07:33:28.271Z,11.57
2019-03-30T07:35:54.689Z,12.33
2019-03-30T07:38:21.180Z,12.67
2019-03-30T07:40:47.527Z,12.37
2019-03-30T07:43:14.024Z,12.30
2019-03-30T07:45:40.464Z,11.57
2019-03-30T07:48:07.044Z,12.67
2019-03-30T07:50:33.412Z,13.20
2019-03-30T07:52:59.882Z,11.90
2019-03-30T07:55:26.342Z,12.33
2019-03-30T07:57:52.748Z,11.67
2019-03-30T08:00:19.263Z,12.63
2019-03-30T08:02:45.745Z,13.33
2019-03-30T08:05:12.605Z,14.37
2019-03-30T08:07:39.203Z,15.30
2019-03-30T08:10:06.162Z,14.33
2019-03-30T08:12:32.541Z,14.03
2019-03-30T08:14:59.111Z,12.27
2019-03-30T08:17:25.464Z,13.53
2019-03-30T08:19:51.868Z,14.80
2019-03-30T08:22:18.260Z,13.40
2019-03-30T08:24:44.876Z,15.00
2019-03-30T08:27:11.336Z,14.40
2019-03-30T08:29:37.908Z,14.93
2019-03-30T08:32:04.365Z,14.03
2019-03-30T08:34:30.757Z,15.03
2019-03-30T08:36:59.274Z,15.00
2019-03-30T08:39:25.500Z,14.83
2019-03-30T08:41:51.971Z,14.20
2019-03-30T08:44:18.547Z,14.33
2019-03-30T08:46:44.899Z,15.13
2019-03-30T08:49:11.371Z,14.80
2019-03-30T08:51:37.789Z,14.53
2019-03-30T08:54:05.203Z,14.63
2019-03-30T08:56:31.567Z,14.30
2019-03-30T08:58:58.092Z,14.65
2019-03-30T09:01:24.484Z,14.33
2019-03-30T09:03:50.977Z,15.07
2019-03-30T09:06:17.433Z,15.83
2019-03-30T09:08:43.811Z,15.08
2019-03-30T09:11:10.253Z,14.35
2019-03-30T09:13:36.837Z,15.45
2019-03-30T09:16:03.418Z,15.00
2019-03-30T09:18:29.907Z,15.68
2019-03-30T09:20:56.299Z,15.35
2019-03-30T09:23:22.772Z,15.65
2019-03-30T09:25:49.459Z,15.23
2019-03-30T09:28:15.945Z,14.80
2019-03-30T09:30:42.548Z,15.63
2019-03-30T09:33:09.013Z,15.32
2019-03-30T09:35:35.475Z,15.30
2019-03-30T09:38:01.869Z,14.58
2019-03-30T09:40:28.460Z,15.23
2019-03-30T09:42:55.032Z,15.35
2019-03-30T09:45:21.513Z,16.07
2019-03-30T09:47:48.075Z,15.00
2019-03-30T09:50:14.604Z,15.15
2019-03-30T09:52:41.100Z,15.70
2019-03-30T09:55:07.491Z,15.23
2019-03-30T09:57:33.951Z,15.00
2019-03-30T10:00:00.431Z,15.30
2019-03-30T10:02:26.880Z,16.00
2019-03-30T10:04:53.482Z,15.75
2019-03-30T10:07:19.842Z,15.40
2019-03-30T10:09:47.441Z,14.70
2019-03-30T10:12:13.913Z,15.30
2019-03-30T10:14:40.504Z,18.15
2019-03-30T10:17:06.956Z,16.45
2019-03-30T10:19:33.428Z,15.40
2019-03-30T10:22:00.019Z,15.58
2019-03-30T10:24:37.571Z,17.50
2019-03-30T10:26:54.786Z,15.15
2019-03-30T10:29:21.198Z,15.23
2019-03-30T10:31:47.551Z,15.30
2019-03-30T10:34:14.045Z,16.37
2019-03-30T10:36:40.604Z,14.47
2019-03-30T10:39:07.060Z,13.72
2019-03-30T10:41:33.527Z,13.55
2019-03-30T10:43:59.991Z,14.87
2019-03-30T10:46:26.379Z,13.70
2019-03-30T10:48:52.746Z,14.18
2019-03-30T10:51:19.138Z,12.60
2019-03-30T10:53:45.491Z,14.60
2019-03-30T10:56:11.975Z,14.73
2019-03-30T10:58:38.538Z,13.83
2019-03-30T11:01:04.936Z,15.48
2019-03-30T11:03:31.471Z,13.95
2019-03-30T11:05:57.969Z,13.20
2019-03-30T11:08:24.414Z,14.18
2019-03-30T11:10:51.807Z,12.65
2019-03-30T11:13:18.198Z,11.97
2019-03-30T11:15:44.795Z,13.32
2019-03-30T11:18:11.165Z,13.22
2019-03-30T11:20:37.628Z,11.95
2019-03-30T11:23:04.122Z,12.10
2019-03-30T11:25:30.647Z,11.25
2019-03-30T11:27:56.999Z,12.40
2019-03-30T11:30:23.610Z,12.03
2019-03-30T11:32:50.730Z,12.78
2019-03-30T11:35:17.099Z,13.58
2019-03-30T11:37:43.666Z,12.98
2019-03-30T11:40:10.232Z,13.40
2019-03-30T11:42:36.697Z,42.90
2019-03-30T11:45:03.994Z,13.50
2019-03-30T11:47:30.457Z,12.58
2019-03-30T11:49:56.873Z,13.93
2019-03-30T11:52:23.406Z,14.25
2019-03-30T11:54:49.787Z,13.22
2019-03-30T11:57:16.244Z,13.38
2019-03-30T11:59:42.591Z,12.18
2019-03-30T12:02:09.086Z,12.18
2019-03-30T12:04:35.545Z,19.82
2019-03-30T12:07:02.156Z,10.13
2019-03-30T12:09:28.606Z,12.30
2019-03-30T12:11:55.085Z,12.47
2019-03-30T12:14:21.539Z,11.40
2019-03-30T12:16:48.223Z,10.80
2019-03-30T12:19:14.689Z,10.23
2019-03-30T12:21:41.177Z,11.35
2019-03-30T12:24:07.860Z,10.53
2019-03-30T12:26:34.362Z,10.10
2019-03-30T12:29:00.830Z,9.30
2019-03-30T12:31:27.201Z,9.60
2019-03-30T12:33:53.551Z,8.90
2019-03-30T12:36:19.911Z,9.73
2019-03-30T12:38:46.363Z,10.53
2019-03-30T12:41:12.734Z,10.93
2019-03-30T12:43:39.288Z,10.55
2019-03-30T12:46:05.839Z,10.68
2019-03-30T12:48:32.308Z,10.32
2019-03-30T12:50:58.811Z,10.45
2019-03-30T12:53:25.365Z,9.78
2019-03-30T12:55:51.855Z,10.53
2019-03-30T12:58:18.322Z,10.20
2019-03-30T13:00:44.710Z,9.53
2019-03-30T13:03:11.166Z,9.50
2019-03-30T13:05:37.622Z,10.28
2019-03-30T13:08:03.991Z,10.03
2019-03-30T13:10:30.590Z,9.83
2019-03-30T13:12:56.920Z,8.80
2019-03-30T13:15:23.391Z,7.83
2019-03-30T13:17:49.960Z,8.35
2019-03-30T13:20:16.421Z,8.78
2019-03-30T13:22:42.827Z,8.95
2019-03-30T13:25:09.339Z,7.55
2019-03-30T13:27:35.822Z,7.30
2019-03-30T13:30:03.885Z,7.95
2019-03-30T13:32:30.345Z,9.53
2019-03-30T13:34:56.701Z,8.90
2019-03-30T13:37:23.193Z,10.30
2019-03-30T13:39:49.579Z,10.23
2019-03-30T13:42:16.158Z,10.00
2019-03-30T13:44:42.521Z,9.43
2019-03-30T13:47:09.018Z,9.63
2019-03-30T13:49:35.376Z,9.75
2019-03-30T13:52:01.875Z,10.18
2019-03-30T13:54:28.272Z,10.10
2019-03-30T13:56:54.865Z,9.98
2019-03-30T13:59:21.241Z,10.50
2019-03-30T14:01:47.696Z,10.38
2019-03-30T14:04:14.142Z,10.80
2019-03-30T14:06:40.623Z,10.85
2019-03-30T14:09:06.971Z,10.03
2019-03-30T14:11:33.490Z,11.15
2019-03-30T14:13:59.939Z,9.98
2019-03-30T14:16:26.339Z,10.40
2019-03-30T14:18:52.792Z,9.70
2019-03-30T14:21:19.159Z,9.93
2019-03-30T14:23:45.677Z,10.20
2019-03-30T14:26:12.142Z,10.05
2019-03-30T14:28:38.655Z,11.25
2019-03-30T14:31:05.045Z,9.28
2019-03-30T14:33:31.519Z,9.95
2019-03-30T14:35:58.007Z,10.38
2019-03-30T14:38:24.388Z,10.15
2019-03-30T14:40:50.942Z,10.80
2019-03-30T14:43:17.526Z,11.15
2019-03-30T14:45:43.884Z,10.03
2019-03-30T14:48:10.465Z,9.40
2019-03-30T14:50:37.036Z,10.58
2019-03-30T14:53:03.704Z,10.72
2019-03-30T14:55:30.182Z,9.68
2019-03-30T14:57:56.749Z,9.18
2019-03-30T15:00:23.220Z,10.53
2019-03-30T15:02:49.943Z,10.13
2019-03-30T15:05:16.475Z,9.70
2019-03-30T15:07:42.878Z,10.25
2019-03-30T15:10:09.451Z,9.68
2019-03-30T15:12:36.445Z,10.15
2019-03-30T15:15:04.882Z,9.23
2019-03-30T15:17:31.288Z,9.10
2019-03-30T15:19:57.639Z,10.15
2019-03-30T15:22:24.086Z,10.03
2019-03-30T15:24:50.478Z,9.55
2019-03-30T15:27:17.056Z,10.55
2019-03-30T15:29:45.535Z,9.58
2019-03-30T15:32:12.058Z,10.43
2019-03-30T15:34:38.504Z,10.53
2019-03-30T15:37:04.890Z,8.98
2019-03-30T15:39:31.448Z,10.32
2019-03-30T15:41:58.130Z,10.05
2019-03-30T15:44:24.705Z,8.85
2019-03-30T15:46:51.285Z,10.15
2019-03-30T15:49:17.674Z,13.18
2019-03-30T15:51:44.031Z,9.08
2019-03-30T15:54:10.665Z,9.35
2019-03-30T15:56:37.281Z,8.78
2019-03-30T15:59:03.832Z,9.13
2019-03-30T16:01:30.432Z,8.78
2019-03-30T16:03:56.911Z,9.18
2019-03-30T16:06:23.377Z,9.30
2019-03-30T16:08:49.772Z,9.23
2019-03-30T16:11:16.166Z,9.90
2019-03-30T16:13:42.714Z,8.55
2019-03-30T16:16:09.143Z,10.30
2019-03-30T16:18:35.523Z,9.60
2019-03-30T16:21:02.079Z,9.88
2019-03-30T16:23:28.547Z,8.70
2019-03-30T16:25:54.959Z,9.23
2019-03-30T16:28:21.535Z,11.57
2019-03-30T16:30:47.999Z,8.80
2019-03-30T16:33:14.408Z,6.33
2019-03-30T16:35:40.976Z,5.45
2019-03-30T16:38:07.478Z,7.40
2019-03-30T16:40:34.142Z,5.80
2019-03-30T16:43:00.580Z,4.65
2019-03-30T16:45:27.148Z,4.72
2019-03-30T16:47:53.618Z,4.47
2019-03-30T16:50:20.118Z,5.40
2019-03-30T16:52:46.698Z,4.58
2019-03-30T16:55:13.170Z,5.45
2019-03-30T16:57:43.750Z,5.65
2019-03-30T17:00:08.325Z,5.03
2019-03-30T17:02:34.909Z,4.37
2019-03-30T17:05:01.661Z,5.67
2019-03-30T17:07:28.045Z,7.00
2019-03-30T17:09:54.495Z,7.12
2019-03-30T17:12:20.959Z,7.35
2019-03-30T17:14:47.343Z,10.88
2019-03-30T17:17:13.809Z,11.22
2019-03-30T17:19:40.351Z,13.68
2019-03-30T17:22:06.799Z,11.18
2019-03-30T17:24:33.264Z,15.15
2019-03-30T17:26:59.755Z,10.28
2019-03-30T17:29:26.131Z,7.85
2019-03-30T17:31:52.479Z,6.30
2019-03-30T17:34:18.881Z,5.92
2019-03-30T17:36:45.438Z,5.40
2019-03-30T17:39:12.210Z,5.95
2019-03-30T17:41:38.659Z,5.95
2019-03-30T17:44:05.200Z,7.63
2019-03-30T17:46:31.566Z,5.22
2019-03-30T17:48:58.128Z,4.95
2019-03-30T17:51:24.693Z,9.93
2019-03-30T17:53:51.346Z,8.97
2019-03-30T17:56:17.783Z,5.80
2019-03-30T17:58:44.246Z,5.97
2019-03-30T18:01:10.597Z,5.22
2019-03-30T18:03:37.027Z,5.70
2019-03-30T18:06:03.497Z,5.97
2019-03-30T18:08:29.967Z,5.83
2019-03-30T18:10:56.453Z,5.43
2019-03-30T18:13:22.929Z,23.63
2019-03-30T18:15:49.490Z,9.27
2019-03-30T18:18:15.963Z,12.93
2019-03-30T18:20:42.364Z,10.77
2019-03-30T18:23:08.912Z,7.13
2019-03-30T18:25:35.444Z,5.80
2019-03-30T18:28:01.901Z,5.20
2019-03-30T18:30:30.281Z,5.60
2019-03-30T18:32:56.732Z,6.83
2019-03-30T18:35:25.104Z,7.03
2019-03-30T18:37:51.654Z,7.13
2019-03-30T18:40:20.052Z,6.27
2019-03-30T18:42:46.512Z,5.90
2019-03-30T18:45:15.212Z,5.63
2019-03-30T18:47:41.766Z,6.57
2019-03-30T18:50:08.442Z,6.00
2019-03-30T18:52:34.899Z,6.37
2019-03-30T18:55:01.384Z,13.63
2019-03-30T18:57:27.751Z,15.07
2019-03-30T18:59:54.119Z,14.13
2019-03-30T19:02:20.694Z,11.33
2019-03-30T19:04:49.015Z,7.60
2019-03-30T19:07:15.367Z,7.27
2019-03-30T19:09:41.744Z,7.53
2019-03-30T19:12:08.301Z,8.33
2019-03-30T19:14:34.785Z,8.37
2019-03-30T19:17:01.148Z,7.57
2019-03-30T19:19:27.619Z,7.97
2019-03-30T19:21:54.067Z,8.30
2019-03-30T19:24:20.680Z,9.43
2019-03-30T19:26:47.181Z,8.43
2019-03-30T19:29:13.543Z,9.27
2019-03-30T19:31:40.129Z,8.67
2019-03-30T19:34:06.503Z,9.33
2019-03-30T19:36:33.017Z,9.43
2019-03-30T19:38:59.385Z,9.73
2019-03-30T19:41:25.880Z,8.73
2019-03-30T19:43:52.315Z,8.67
2019-03-30T19:46:18.799Z,10.30
2019-03-30T19:48:45.199Z,9.77
2019-03-30T19:51:11.632Z,11.07
2019-03-30T19:53:38.077Z,11.57
2019-03-30T19:56:04.959Z,11.57
2019-03-30T19:58:31.315Z,12.30
2019-03-30T20:00:57.789Z,10.83
2019-03-30T20:03:24.244Z,11.13
2019-03-30T20:05:50.716Z,12.50
2019-03-30T20:08:17.173Z,11.87
2019-03-30T20:10:43.639Z,13.70
2019-03-30T20:13:10.636Z,13.20
2019-03-30T20:15:37.096Z,13.53
2019-03-30T20:18:03.659Z,13.73
2019-03-30T20:20:30.257Z,13.27
2019-03-30T20:22:56.621Z,13.67
2019-03-30T20:25:25.869Z,13.50
2019-03-30T20:27:51.504Z,12.77
2019-03-30T20:30:18.394Z,13.97
2019-03-30T20:32:44.856Z,13.33
2019-03-30T20:35:11.351Z,13.63
2019-03-30T20:37:37.879Z,13.47
2019-03-30T20:40:05.369Z,12.90
2019-03-30T20:42:31.919Z,13.73
2019-03-30T20:44:58.373Z,12.60
2019-03-30T20:47:24.755Z,12.63
2019-03-30T20:49:51.108Z,12.50
2019-03-30T20:52:17.608Z,12.30
2019-03-30T20:54:44.188Z,11.17
2019-03-30T20:57:10.651Z,12.57
2019-03-30T20:59:40.261Z,16.63
2019-03-30T21:02:05.296Z,12.47
2019-03-30T21:04:31.643Z,12.50
2019-03-30T21:06:58.110Z,11.77
2019-03-30T21:09:24.541Z,12.30
2019-03-30T21:11:50.996Z,12.00
2019-03-30T21:14:17.573Z,11.70
2019-03-30T21:16:44.154Z,11.43
2019-03-30T21:19:10.591Z,11.77
2019-03-30T21:21:37.218Z,12.97
2019-03-30T21:24:03.664Z,11.53
2019-03-30T21:26:30.271Z,11.67
2019-03-30T21:28:56.719Z,12.73
2019-03-30T21:31:23.312Z,11.73
2019-03-30T21:33:49.763Z,12.50
2019-03-30T21:36:16.336Z,12.47
2019-03-30T21:38:42.778Z,11.80
2019-03-30T21:41:09.154Z,12.77
2019-03-30T21:43:35.624Z,12.73
2019-03-30T21:46:02.098Z,11.67
2019-03-30T21:48:28.439Z,12.27
2019-03-30T21:50:55.003Z,11.63
2019-03-30T21:53:21.481Z,12.27
2019-03-30T21:55:47.946Z,11.53
2019-03-30T21:58:14.433Z,12.33
2019-03-30T22:00:40.890Z,12.23
2019-03-30T22:03:07.628Z,13.07
2019-03-30T22:05:33.997Z,13.07
2019-03-30T22:08:01.009Z,13.00
2019-03-30T22:10:27.672Z,12.53
2019-03-30T22:12:54.163Z,11.53
2019-03-30T22:15:22.407Z,13.17
2019-03-30T22:17:48.801Z,13.03
2019-03-30T22:20:15.261Z,12.10
2019-03-30T22:22:41.727Z,12.40
2019-03-30T22:25:08.223Z,12.63
2019-03-30T22:27:34.704Z,13.43
2019-03-30T22:30:01.379Z,12.97
2019-03-30T22:32:27.910Z,13.70
2019-03-30T22:34:54.357Z,12.13
2019-03-30T22:37:20.941Z,13.03
2019-03-30T22:39:47.491Z,13.00
2019-03-30T22:42:13.960Z,13.17
2019-03-30T22:44:40.521Z,12.67
2019-03-30T22:47:06.972Z,13.03
2019-03-30T22:49:33.328Z,13.37
2019-03-30T22:51:59.713Z,13.50
2019-03-30T22:54:26.073Z,12.37
2019-03-30T22:56:52.419Z,13.17
2019-03-30T22:59:19.014Z,13.00
2019-03-30T23:01:45.557Z,13.53
2019-03-30T23:04:12.131Z,13.20
2019-03-30T23:06:38.593Z,12.67
2019-03-30T23:09:05.313Z,13.17
2019-03-30T23:11:31.771Z,13.97
2019-03-30T23:13:58.257Z,13.03
2019-03-30T23:16:24.827Z,13.77
2019-03-30T23:18:51.298Z,12.60
2019-03-30T23:21:17.643Z,13.57
2019-03-30T23:23:44.146Z,13.67
2019-03-30T23:26:10.681Z,12.40
2019-03-30T23:28:37.270Z,13.23
2019-03-30T23:31:03.843Z,13.50
2019-03-30T23:33:30.195Z,13.57
2019-03-30T23:35:56.646Z,12.80
2019-03-30T23:38:23.018Z,12.53
2019-03-30T23:40:49.471Z,13.53
2019-03-30T23:43:15.864Z,14.23
2019-03-30T23:45:42.311Z,14.03
2019-03-30T23:48:08.674Z,13.80
2019-03-30T23:50:35.139Z,14.37
2019-03-30T23:53:01.641Z,13.50
2019-03-30T23:55:28.193Z,12.93
2019-03-30T23:57:54.650Z,14.10
